SKRGSKBO

Guest
Details From SKRG - Jose Maria Cordova
To SKBO - Eldorado Intl
Flight Number -
Tags Generated
Created
Modified
Stats Distance 116 nm / 214 km
Max Altitude 0 ft / 0 m
Waypoints 2
Social Downloads 1
Likes 0
Share VATSIM

Download

Looking for another format? Having issues loading an existing format? Contact us
Advertisement - Login to hide

Notes

Generated

Route

SKRG SKBO

ID Type Via Altitude Latitude Longitude Leg Dist Tot Dist Heading (true) Name
O SKRG APT - 0 ft / 0 m 6.18036˚ -75.42323˚ - 0 nm - -
O SKBO APT - 0 ft / 0 m 4.71050˚ -74.16917˚ 115 nm 115 nm 140° / 140° -

Altitude Profile

Advertisement - Login to hide

SKRG

Details ICAO SKRG (MDE)
Name JOSE MARIA CORDOVA
Region Colombia
Timezone America/Bogota (UTC-5.0)
Stats Elevation 6,955 ft / 2,120 m (AMSL)
Location 6.164532° -75.423119°
Runways 1
Magnetic Variation 6.630° W

METAR

SKRG 132300Z 09006KT 9999 SCT015TCU SCT080 17/15 A3025 RMK TCU/SW/W

Decode

TAF

Not found

Departure Runways

ID Width Length Bearing (true) Bearing (mag) Surface Threshold Offset Overrun Length
18 148 ft / 45 m 11,547 ft / 3,520 m 179.62° 186.25° Asphalt 0 ft / 0 m 98 ft / 30 m
36 148 ft / 45 m 11,547 ft / 3,520 m 359.62° 6.25° Asphalt 0 ft / 0 m 98 ft / 30 m

SKBO

Details ICAO SKBO (BOG)
Name Bogota - El Dorado Intl
Region Colombia
Timezone America/Bogota (UTC-5.0)
Stats Elevation 8,361 ft / 2,548 m (AMSL)
Location 4.701594° -74.146946°
Runways 2
Magnetic Variation 7.267° W

METAR

SKBO 132300Z VRB02KT 8000 VCSH SCT020CB BKN200 15/08 A3028 REDZ RMK CB VCSH/SE

Decode

TAF

Not found

Destination Runways

ID Width Length Bearing (true) Bearing (mag) Surface Threshold Offset Overrun Length
13L 148 ft / 45 m 12,482 ft / 3,804 m 127.21° 134.48° Asphalt 0 ft / 0 m 0 ft / 0 m
13R 148 ft / 45 m 12,494 ft / 3,808 m 127.23° 134.50° Asphalt 0 ft / 0 m 200 ft / 61 m
31L 148 ft / 45 m 12,494 ft / 3,808 m 307.23° 314.50° Asphalt 0 ft / 0 m 190 ft / 58 m
31R 148 ft / 45 m 12,482 ft / 3,804 m 307.21° 314.48° Asphalt 0 ft / 0 m 0 ft / 0 m

Approach Navaids

Runway Type Ident Frequency Range Bearing (true) Bearing (mag) Slope Elevation
13L Localiser IEDR 111.30 MHz 18 nm / 33 km 127.21° 134.48° - 8,355 ft / 2,547 m (AMSL)
13L Glidescope IEDR 111.30 MHz 10 nm / 19 km 127.21° 134.48° 3.00° 8,357 ft / 2,547 m (AMSL)
13L DME IEDR 111.30 MHz 18 nm / 33 km - - - 8,361 ft / 2,548 m (AMSL)
13R Localiser IADO 110.70 MHz 18 nm / 33 km 127.23° 134.50° - 8,355 ft / 2,547 m (AMSL)
13R Glidescope IADO 110.70 MHz 10 nm / 19 km 127.23° 134.50° 3.00° 8,361 ft / 2,548 m (AMSL)
13R DME IADO 110.70 MHz 18 nm / 33 km - - - 8,361 ft / 2,548 m (AMSL)

Popular Alternatives